Time;durP1;ratioP1;P1;durP2;ratioP2;P2;SDS_P1;SDS_P2;PMS_P1;PMS_P2;Temp;Humidity;BMP_temperature;BMP_pressure;BME280_temperature;BME280_humidity;BME280_pressure;Samples;Min_cycle;Max_cycle;Signal;HPM_P1;HPM_P2
2023/11/06 00:00:25;;;;;;;1.50;0.90;;;;;;;11.86;100.00;99863.39;104533;1272;61670;-55
2023/11/06 00:02:53;;;;;;;2.20;1.00;;;;;;;11.85;100.00;99862.16;104585;1267;60111;-55
2023/11/06 00:05:21;;;;;;;1.00;0.80;;;;;;;11.84;100.00;99859.67;108223;1266;71872;-56
2023/11/06 00:07:49;;;;;;;1.40;1.00;;;;;;;11.83;100.00;99849.66;108216;1266;64934;-55
2023/11/06 00:10:17;;;;;;;2.60;0.80;;;;;;;11.83;100.00;99845.52;108210;1270;73156;-55
2023/11/06 00:12:45;;;;;;;1.00;0.70;;;;;;;11.82;100.00;99844.14;108309;1266;61560;-56
2023/11/06 00:15:15;;;;;;;1.30;0.60;;;;;;;11.81;100.00;99846.73;108283;1266;59034;-55
2023/11/06 00:17:42;;;;;;;1.30;0.70;;;;;;;11.80;100.00;99845.36;108494;1262;71278;-57
2023/11/06 00:20:10;;;;;;;1.20;1.00;;;;;;;11.81;100.00;99844.06;108460;1263;67158;-54
2023/11/06 00:22:38;;;;;;;0.70;0.60;;;;;;;11.81;100.00;99844.06;108593;1263;72737;-55
2023/11/06 00:25:06;;;;;;;0.90;0.60;;;;;;;11.80;100.00;99843.71;108386;1263;60697;-56
2023/11/06 00:27:34;;;;;;;1.00;0.70;;;;;;;11.79;100.00;99842.68;108477;1263;60188;-55
2023/11/06 00:30:01;;;;;;;1.20;0.60;;;;;;;11.78;100.00;99837.52;108542;1261;73761;-53
2023/11/06 00:32:28;;;;;;;3.90;0.60;;;;;;;11.78;100.00;99835.75;108508;1263;65491;-54
2023/11/06 00:34:56;;;;;;;0.90;0.60;;;;;;;11.78;100.00;99838.98;108469;1263;72805;-54
2023/11/06 00:37:23;;;;;;;2.20;0.60;;;;;;;11.78;100.00;99839.50;108363;1263;59684;-54
2023/11/06 00:39:51;;;;;;;0.50;0.50;;;;;;;11.79;100.00;99840.52;108572;1263;59054;-54
2023/11/06 00:42:19;;;;;;;0.80;0.60;;;;;;;11.81;100.00;99835.42;108373;1266;72776;-53
2023/11/06 00:44:46;;;;;;;4.10;0.70;;;;;;;11.81;100.00;99838.45;108436;1260;66087;-54
2023/11/06 00:47:14;;;;;;;1.90;0.70;;;;;;;11.81;100.00;99840.23;108524;1263;72724;-53
2023/11/06 00:49:41;;;;;;;0.90;0.50;;;;;;;11.83;100.00;99846.09;108500;1260;61978;-53
2023/11/06 00:52:08;;;;;;;2.90;0.50;;;;;;;11.83;100.00;99848.94;108512;1260;60017;-53
2023/11/06 00:54:36;;;;;;;1.90;0.50;;;;;;;11.83;100.00;99852.03;108554;1260;73027;-54
2023/11/06 00:57:03;;;;;;;0.70;0.50;;;;;;;11.83;100.00;99850.59;106287;1260;65153;-56
2023/11/06 00:59:31;;;;;;;1.20;0.60;;;;;;;11.82;100.00;99856.04;104573;1267;72740;-55
2023/11/06 01:01:58;;;;;;;0.70;0.50;;;;;;;11.81;100.00;99854.28;104605;1267;60568;-56
2023/11/06 01:04:25;;;;;;;1.00;0.50;;;;;;;11.81;100.00;99860.05;104770;1266;59545;-56
2023/11/06 01:06:53;;;;;;;2.50;0.60;;;;;;;11.79;100.00;99862.09;107530;1260;72190;-52
2023/11/06 01:09:21;;;;;;;0.70;0.60;;;;;;;11.78;100.00;99855.16;104856;1268;67130;-53
2023/11/06 01:11:48;;;;;;;5.10;0.60;;;;;;;11.77;100.00;99851.24;104791;1273;72082;-51
2023/11/06 01:14:16;;;;;;;2.10;0.40;;;;;;;11.74;100.00;99850.84;104863;1268;61096;-52
2023/11/06 01:16:43;;;;;;;1.80;0.50;;;;;;;11.71;100.00;99849.73;108550;1260;60566;-54
2023/11/06 01:19:12;;;;;;;4.80;0.80;;;;;;;11.69;100.00;99849.64;105365;1266;73679;-51
2023/11/06 01:21:41;;;;;;;4.50;0.60;;;;;;;11.68;100.00;99853.27;108540;1263;67242;-54
2023/11/06 01:24:11;;;;;;;1.10;0.50;;;;;;;11.67;100.00;99859.27;107762;1266;72928;-53
2023/11/06 01:26:42;;;;;;;0.60;0.50;;;;;;;11.66;100.00;99860.40;105401;1261;62294;-53
2023/11/06 01:29:11;;;;;;;1.10;0.50;;;;;;;11.65;100.00;99864.38;106184;1269;59134;-52
2023/11/06 01:31:39;;;;;;;2.40;0.40;;;;;;;11.66;100.00;99865.06;108512;1260;72374;-54
2023/11/06 01:34:06;;;;;;;3.70;0.70;;;;;;;11.67;100.00;99862.50;105217;1263;65700;-54
2023/11/06 01:36:34;;;;;;;0.80;0.50;;;;;;;11.67;100.00;99862.30;104918;1270;72777;-53
2023/11/06 01:39:02;;;;;;;0.50;0.40;;;;;;;11.67;100.00;99862.64;104999;1260;61894;-53
2023/11/06 01:41:30;;;;;;;0.60;0.60;;;;;;;11.67;100.00;99864.28;105023;1266;60116;-51
2023/11/06 01:43:58;;;;;;;0.60;0.40;;;;;;;11.67;100.00;99866.65;104991;1265;70728;-53
2023/11/06 01:46:25;;;;;;;3.50;0.50;;;;;;;11.65;100.00;99867.23;107220;1261;66305;-53
2023/11/06 01:48:52;;;;;;;0.60;0.40;;;;;;;11.65;100.00;99872.68;105005;1269;73249;-54
2023/11/06 01:51:20;;;;;;;1.00;0.40;;;;;;;11.63;100.00;99872.59;105001;1270;60666;-51
2023/11/06 01:53:47;;;;;;;2.70;0.50;;;;;;;11.63;100.00;99873.53;105055;1261;60722;-54
2023/11/06 01:56:16;;;;;;;1.90;0.40;;;;;;;11.61;100.00;99879.36;105195;1264;71868;-53
2023/11/06 01:58:44;;;;;;;0.50;0.40;;;;;;;11.59;100.00;99878.02;105078;1269;66483;-54
2023/11/06 02:01:11;;;;;;;1.70;0.40;;;;;;;11.57;100.00;99880.63;104915;1266;71507;-53
2023/11/06 02:03:39;;;;;;;0.50;0.40;;;;;;;11.55;100.00;99883.44;104890;1261;61730;-50
2023/11/06 02:06:07;;;;;;;0.80;0.40;;;;;;;11.52;100.00;99885.75;105817;1261;59589;-52
2023/11/06 02:08:34;;;;;;;2.90;0.50;;;;;;;11.48;100.00;99873.17;104865;1263;73084;-54
2023/11/06 02:11:02;;;;;;;0.60;0.50;;;;;;;11.45;100.00;99866.52;104906;1267;67059;-54
2023/11/06 02:13:30;;;;;;;1.80;0.40;;;;;;;11.43;100.00;99865.91;105482;1263;71511;-55
2023/11/06 02:15:59;;;;;;;1.70;0.40;;;;;;;11.39;100.00;99869.14;105929;1262;62439;-58
2023/11/06 02:18:26;;;;;;;1.10;0.60;;;;;;;11.36;100.00;99871.24;106840;1260;60637;-54
2023/11/06 02:20:57;;;;;;;0.50;0.50;;;;;;;11.33;100.00;99875.89;104695;1261;72963;-54
2023/11/06 02:23:28;;;;;;;1.30;0.40;;;;;;;11.30;100.00;99886.13;104641;1266;65634;-55
2023/11/06 02:25:55;;;;;;;0.60;0.40;;;;;;;11.27;100.00;99881.77;104729;1266;71872;-54
2023/11/06 02:28:23;;;;;;;0.70;0.40;;;;;;;11.25;100.00;99883.66;104695;1260;60470;-54
2023/11/06 02:30:52;;;;;;;0.50;0.40;;;;;;;11.23;100.00;99883.76;105464;1260;60245;-54
2023/11/06 02:33:20;;;;;;;1.60;0.50;;;;;;;11.21;100.00;99888.91;105516;1260;71880;-54
2023/11/06 02:35:48;;;;;;;0.70;0.60;;;;;;;11.19;100.00;99878.94;105287;1266;67679;-54
2023/11/06 02:38:15;;;;;;;0.50;0.50;;;;;;;11.17;100.00;99880.83;104785;1263;72045;-53
2023/11/06 02:40:42;;;;;;;0.70;0.40;;;;;;;11.14;100.00;99876.88;104854;1262;61661;-53
2023/11/06 02:43:10;;;;;;;1.50;0.50;;;;;;;11.12;100.00;99870.13;104709;1269;62259;-54
2023/11/06 02:45:37;;;;;;;0.50;0.50;;;;;;;11.10;100.00;99866.46;104690;1264;73215;-53
2023/11/06 02:48:05;;;;;;;0.50;0.40;;;;;;;11.07;100.00;99867.64;104792;1263;69157;-54
2023/11/06 02:50:32;;;;;;;1.40;0.50;;;;;;;11.04;100.00;99866.58;104958;1263;71515;-56
2023/11/06 02:53:00;;;;;;;0.40;0.40;;;;;;;11.02;100.00;99871.35;105349;1263;60966;-55
2023/11/06 02:55:28;;;;;;;1.10;0.50;;;;;;;10.99;100.00;99871.63;104444;1262;60454;-55
2023/11/06 02:57:55;;;;;;;0.40;0.40;;;;;;;10.97;100.00;99870.32;104434;1268;73129;-54
2023/11/06 03:00:23;;;;;;;0.70;0.50;;;;;;;10.94;100.00;99871.91;104563;1268;67869;-54
2023/11/06 03:02:50;;;;;;;0.50;0.50;;;;;;;10.92;100.00;99864.64;104626;1268;73199;-54
2023/11/06 03:05:18;;;;;;;2.20;0.60;;;;;;;10.89;100.00;99869.27;108376;1263;60440;-55
2023/11/06 03:07:46;;;;;;;2.30;0.50;;;;;;;10.86;100.00;99871.55;108504;1263;58250;-56
2023/11/06 03:10:14;;;;;;;3.00;0.60;;;;;;;10.84;100.00;99869.31;108457;1262;72619;-55
2023/11/06 03:12:41;;;;;;;0.90;0.50;;;;;;;10.82;100.00;99874.95;108466;1262;67060;-56
2023/11/06 03:15:10;;;;;;;1.40;0.60;;;;;;;10.80;100.00;99867.56;108416;1263;72740;-54
2023/11/06 03:17:38;;;;;;;1.80;0.50;;;;;;;10.77;100.00;99870.91;108447;1266;62214;-54
2023/11/06 03:20:10;;;;;;;2.30;0.60;;;;;;;10.75;100.00;99871.90;108400;1264;59487;-55
2023/11/06 03:22:38;;;;;;;2.40;0.50;;;;;;;10.73;100.00;99877.17;108446;1263;74528;-54
2023/11/06 03:25:06;;;;;;;1.90;0.40;;;;;;;10.72;100.00;99870.81;108360;1263;66942;-55
2023/11/06 03:27:34;;;;;;;1.30;0.50;;;;;;;10.70;100.00;99870.16;108388;1263;72774;-55
2023/11/06 03:30:01;;;;;;;1.70;0.50;;;;;;;10.69;100.00;99864.29;108404;1263;62496;-55
2023/11/06 03:32:29;;;;;;;0.60;0.50;;;;;;;10.69;100.00;99867.52;108528;1263;59882;-55
2023/11/06 03:34:57;;;;;;;2.30;0.60;;;;;;;10.68;100.00;99861.82;108455;1263;75889;-54
2023/11/06 03:37:24;;;;;;;0.80;0.50;;;;;;;10.67;100.00;99858.45;108465;1261;66234;-54
2023/11/06 03:39:52;;;;;;;0.90;0.60;;;;;;;10.67;100.00;99854.35;108379;1263;71532;-55
2023/11/06 03:42:19;;;;;;;0.60;0.50;;;;;;;10.66;100.00;99855.29;108413;1263;62204;-55
2023/11/06 03:44:49;;;;;;;0.80;0.50;;;;;;;10.65;100.00;99861.63;108444;1264;61113;-55
2023/11/06 03:47:17;;;;;;;5.90;0.50;;;;;;;10.63;100.00;99855.27;108401;1264;72680;-55
2023/11/06 03:49:44;;;;;;;1.00;0.40;;;;;;;10.62;100.00;99860.86;108454;1266;67401;-55
2023/11/06 03:52:12;;;;;;;0.80;0.50;;;;;;;10.61;100.00;99857.48;108341;1263;72717;-55
2023/11/06 03:54:40;;;;;;;1.30;0.30;;;;;;;10.59;100.00;99858.66;108475;1264;60531;-55
2023/11/06 03:57:07;;;;;;;2.50;0.40;;;;;;;10.56;100.00;99862.52;108396;1266;58896;-55
2023/11/06 03:59:35;;;;;;;2.80;0.40;;;;;;;10.55;100.00;99866.34;108414;1263;73184;-57
2023/11/06 04:02:02;;;;;;;0.70;0.40;;;;;;;10.54;100.00;99868.05;105442;1264;68063;-54
2023/11/06 04:04:30;;;;;;;1.90;0.40;;;;;;;10.52;100.00;99865.27;104796;1276;71452;-51
2023/11/06 04:06:57;;;;;;;1.70;0.50;;;;;;;10.50;100.00;99866.96;104759;1266;60779;-54
2023/11/06 04:09:25;;;;;;;0.50;0.40;;;;;;;10.48;100.00;99865.79;104840;1266;60540;-55
2023/11/06 04:11:53;;;;;;;2.50;0.40;;;;;;;10.47;100.00;99867.84;104749;1264;73915;-52
2023/11/06 04:14:20;;;;;;;1.60;0.40;;;;;;;10.45;100.00;99870.45;104882;1275;66313;-55
2023/11/06 04:16:48;;;;;;;4.50;0.40;;;;;;;10.42;100.00;99873.44;104972;1267;72486;-55
2023/11/06 04:19:15;;;;;;;0.60;0.40;;;;;;;10.39;100.00;99872.48;105269;1264;61768;-53
2023/11/06 04:21:43;;;;;;;0.60;0.50;;;;;;;10.37;100.00;99872.77;105171;1268;60908;-56
2023/11/06 04:24:11;;;;;;;0.90;0.40;;;;;;;10.35;100.00;99873.41;104885;1270;74518;-53
2023/11/06 04:26:38;;;;;;;1.30;0.40;;;;;;;10.34;100.00;99881.19;104751;1267;65451;-53
2023/11/06 04:29:05;;;;;;;3.80;0.40;;;;;;;10.31;100.00;99886.15;104664;1266;73081;-53
2023/11/06 04:31:33;;;;;;;1.70;0.30;;;;;;;10.28;100.00;99897.24;104866;1264;61483;-53
2023/11/06 04:34:00;;;;;;;0.50;0.30;;;;;;;10.25;100.00;99891.80;104996;1277;60358;-53
2023/11/06 04:36:27;;;;;;;1.20;0.40;;;;;;;10.23;100.00;99891.88;104995;1266;72611;-54
2023/11/06 04:38:55;;;;;;;0.50;0.30;;;;;;;10.22;100.00;99893.71;104893;1267;66793;-54
2023/11/06 04:41:22;;;;;;;1.30;0.30;;;;;;;10.21;100.00;99893.92;105380;1255;73397;-53
2023/11/06 04:43:50;;;;;;;0.50;0.30;;;;;;;10.20;100.00;99891.49;106755;1260;62020;-53
2023/11/06 04:46:18;;;;;;;0.70;0.30;;;;;;;10.18;100.00;99896.04;105489;1254;60631;-53
2023/11/06 04:48:45;;;;;;;1.90;0.40;;;;;;;10.18;100.00;99893.38;105305;1255;73855;-53
2023/11/06 04:51:15;;;;;;;1.10;0.40;;;;;;;10.16;100.00;99901.13;105467;1259;66973;-55
2023/11/06 04:53:42;;;;;;;1.10;0.20;;;;;;;10.15;100.00;99904.23;105737;1260;73077;-54
2023/11/06 04:56:09;;;;;;;0.70;0.30;;;;;;;10.13;100.00;99899.09;105393;1255;61396;-53
2023/11/06 04:58:37;;;;;;;0.50;0.30;;;;;;;10.12;100.00;99900.61;105359;1254;60516;-55
2023/11/06 05:01:08;;;;;;;0.50;0.30;;;;;;;10.10;100.00;99897.65;105495;1263;74781;-54
2023/11/06 05:03:35;;;;;;;0.20;0.20;;;;;;;10.08;100.00;99906.48;105492;1260;66990;-54
2023/11/06 05:06:04;;;;;;;0.50;0.30;;;;;;;10.07;100.00;99899.72;106482;1258;71597;-54
2023/11/06 05:08:33;;;;;;;0.60;0.30;;;;;;;10.06;100.00;99901.55;105604;1260;60498;-53
2023/11/06 05:11:05;;;;;;;0.50;0.40;;;;;;;10.05;100.00;99908.42;105254;1261;60489;-54
2023/11/06 05:13:32;;;;;;;1.90;0.30;;;;;;;10.03;100.00;99910.50;105403;1263;73807;-53
2023/11/06 05:16:00;;;;;;;0.40;0.40;;;;;;;10.02;100.00;99907.49;105361;1260;67295;-53
2023/11/06 05:18:27;;;;;;;1.60;0.30;;;;;;;10.01;100.00;99907.35;105335;1260;74575;-54
2023/11/06 05:20:54;;;;;;;1.70;0.30;;;;;;;10.00;100.00;99908.64;105413;1260;60620;-54
2023/11/06 05:23:22;;;;;;;3.00;0.30;;;;;;;10.00;100.00;99915.27;105421;1259;60530;-54
2023/11/06 05:25:49;;;;;;;0.30;0.30;;;;;;;10.00;100.00;99919.05;105418;1257;73115;-55
2023/11/06 05:28:17;;;;;;;0.80;0.30;;;;;;;10.01;100.00;99928.35;105495;1259;65685;-54
2023/11/06 05:30:44;;;;;;;0.20;0.20;;;;;;;10.01;100.00;99929.40;105321;1254;73072;-54
2023/11/06 05:33:12;;;;;;;0.40;0.30;;;;;;;10.02;100.00;99934.19;105232;1258;61757;-52
2023/11/06 05:35:39;;;;;;;1.80;0.40;;;;;;;10.04;100.00;99933.23;105007;1257;60387;-54
2023/11/06 05:38:07;;;;;;;2.90;0.90;;;;;;;10.04;100.00;99940.39;105106;1255;73910;-54
2023/11/06 05:40:35;;;;;;;1.40;1.20;;;;;;;10.05;100.00;99945.54;105069;1260;66033;-53
2023/11/06 05:43:03;;;;;;;5.50;4.00;;;;;;;10.07;100.00;99950.67;104800;1263;73186;-54
2023/11/06 05:45:30;;;;;;;16.20;8.50;;;;;;;10.08;100.00;99957.77;105020;1260;61634;-53
2023/11/06 05:47:58;;;;;;;29.50;13.40;;;;;;;10.11;100.00;99958.92;105705;1257;62384;-54
2023/11/06 05:50:25;;;;;;;30.60;13.70;;;;;;;10.13;100.00;99961.52;106381;1258;74830;-54
2023/11/06 05:52:53;;;;;;;16.30;6.50;;;;;;;10.16;100.00;99970.54;105308;1259;65557;-53
2023/11/06 05:55:21;;;;;;;4.70;2.30;;;;;;;10.19;100.00;99970.27;106596;1257;72833;-54
2023/11/06 05:57:48;;;;;;;6.60;1.80;;;;;;;10.21;100.00;99978.05;105033;1255;62048;-53
2023/11/06 06:00:16;;;;;;;1.00;0.60;;;;;;;10.23;100.00;99985.66;104914;1257;60440;-52
2023/11/06 06:02:43;;;;;;;1.00;0.40;;;;;;;10.26;100.00;99993.27;105412;1260;73930;-53
2023/11/06 06:05:11;;;;;;;2.90;0.40;;;;;;;10.28;100.00;99998.20;105413;1255;68499;-55
2023/11/06 06:07:39;;;;;;;0.50;0.40;;;;;;;10.32;100.00;100005.75;105431;1257;72721;-54
2023/11/06 06:10:07;;;;;;;0.50;0.20;;;;;;;10.35;100.00;100008.48;105364;1260;60555;-52
2023/11/06 06:12:34;;;;;;;0.40;0.30;;;;;;;10.39;100.00;100022.63;105321;1254;60383;-54
2023/11/06 06:15:02;;;;;;;0.30;0.20;;;;;;;10.42;100.00;100028.07;105430;1258;73880;-55
2023/11/06 06:17:30;;;;;;;0.30;0.30;;;;;;;10.47;100.00;100038.80;105618;1257;66278;-53
2023/11/06 06:19:57;;;;;;;2.80;0.20;;;;;;;10.52;100.00;100042.19;109021;1254;71437;-56
2023/11/06 06:22:26;;;;;;;0.40;0.10;;;;;;;10.57;100.00;100043.94;108965;1254;61167;-53
2023/11/06 06:24:53;;;;;;;0.20;0.20;;;;;;;10.63;100.00;100055.88;109019;1254;58862;-55
2023/11/06 06:27:20;;;;;;;1.40;0.30;;;;;;;10.70;100.00;100070.46;109109;1254;74261;-55
2023/11/06 06:29:48;;;;;;;0.70;0.20;;;;;;;10.76;100.00;100080.98;108902;1254;67070;-53
2023/11/06 06:32:16;;;;;;;0.40;0.20;;;;;;;10.83;100.00;100093.79;109109;1254;71988;-55
2023/11/06 06:34:43;;;;;;;0.40;0.30;;;;;;;10.87;100.00;100101.32;109026;1253;61778;-53
2023/11/06 06:37:11;;;;;;;0.30;0.30;;;;;;;10.92;100.00;100103.60;109024;1254;59899;-54
2023/11/06 06:39:38;;;;;;;0.30;0.20;;;;;;;10.99;100.00;100118.55;109027;1254;72628;-53
2023/11/06 06:42:06;;;;;;;0.60;0.20;;;;;;;11.05;100.00;100124.03;108921;1254;67104;-53
2023/11/06 06:44:33;;;;;;;0.20;0.20;;;;;;;11.12;100.00;100135.56;109134;1252;71017;-53
2023/11/06 06:47:01;;;;;;;1.10;0.30;;;;;;;11.18;100.00;100143.00;108987;1254;58921;-53
2023/11/06 06:49:28;;;;;;;0.20;0.20;;;;;;;11.24;100.00;100152.29;108998;1253;60415;-54
2023/11/06 06:51:56;;;;;;;0.50;0.20;;;;;;;11.29;100.00;100162.83;108971;1254;75415;-53
2023/11/06 06:54:24;;;;;;;0.30;0.20;;;;;;;11.34;100.00;100169.24;109005;1254;66230;-53
2023/11/06 06:56:54;;;;;;;0.50;0.20;;;;;;;11.41;100.00;100188.53;108946;1257;73291;-53
2023/11/06 06:59:22;;;;;;;0.30;0.20;;;;;;;11.49;100.00;100205.62;108875;1253;61554;-54
2023/11/06 07:01:49;;;;;;;0.20;0.20;;;;;;;11.56;100.00;100211.77;108877;1254;58816;-54
2023/11/06 07:04:17;;;;;;;0.20;0.10;;;;;;;11.62;100.00;100228.54;106427;1257;74315;-53
2023/11/06 07:06:44;;;;;;;0.20;0.10;;;;;;;11.70;100.00;100241.66;105390;1254;65731;-54
2023/11/06 07:09:11;;;;;;;0.60;0.20;;;;;;;11.78;100.00;100255.19;105234;1254;73221;-51
2023/11/06 07:11:39;;;;;;;1.00;0.30;;;;;;;11.86;100.00;100274.77;105365;1254;60469;-53
2023/11/06 07:14:07;;;;;;;0.20;0.20;;;;;;;11.93;100.00;100294.06;105553;1257;60519;-53
2023/11/06 07:16:34;;;;;;;0.50;0.30;;;;;;;12.00;100.00;100308.86;105731;1254;72662;-53
2023/11/06 07:19:02;;;;;;;0.50;0.30;;;;;;;12.06;100.00;100328.75;105507;1258;67220;-54
2023/11/06 07:21:31;;;;;;;0.50;0.20;;;;;;;12.11;100.00;100348.10;105456;1254;71396;-53
2023/11/06 07:23:59;;;;;;;1.90;0.20;;;;;;;12.16;100.00;100360.48;108982;1254;60771;-55
2023/11/06 07:26:28;;;;;;;0.30;0.20;;;;;;;12.22;100.00;100373.55;107202;1254;60780;-52
2023/11/06 07:28:55;;;;;;;1.60;0.20;;;;;;;12.27;100.00;100393.63;106720;1254;73784;-53
2023/11/06 07:31:23;;;;;;;0.30;0.20;;;;;;;12.33;100.00;100406.33;105333;1254;66813;-54
2023/11/06 07:33:51;;;;;;;0.30;0.10;;;;;;;12.38;100.00;100418.84;105325;1257;72738;-52
2023/11/06 07:36:18;;;;;;;0.20;0.10;;;;;;;12.45;100.00;100434.56;105353;1257;62095;-51
2023/11/06 07:38:45;;;;;;;0.30;0.20;;;;;;;12.52;100.00;100445.56;105311;1254;60642;-54
2023/11/06 07:41:13;;;;;;;0.20;0.10;;;;;;;12.59;100.00;100459.85;105264;1254;74206;-52
2023/11/06 07:43:40;;;;;;;0.90;0.10;;;;;;;12.63;100.00;100477.66;105464;1256;66211;-54
2023/11/06 07:46:08;;;;;;;0.20;0.10;;;;;;;12.65;100.00;100492.89;105529;1254;73439;-55
2023/11/06 07:48:36;;;;;;;0.20;0.10;;;;;;;12.66;100.00;100505.44;105690;1254;61071;-52
2023/11/06 07:51:04;;;;;;;0.30;0.10;;;;;;;12.68;100.00;100517.78;106496;1254;60533;-54
2023/11/06 07:53:32;;;;;;;1.20;0.20;;;;;;;12.71;100.00;100527.54;105359;1260;73917;-55
2023/11/06 07:56:02;;;;;;;4.30;0.20;;;;;;;12.76;100.00;100541.54;105365;1254;67519;-54
2023/11/06 07:58:30;;;;;;;0.40;0.10;;;;;;;12.81;100.00;100560.41;108041;1256;72698;-54
2023/11/06 08:00:58;;;;;;;0.40;0.20;;;;;;;12.87;100.00;100570.40;105443;1256;60462;-52
2023/11/06 08:03:25;;;;;;;0.40;0.10;;;;;;;12.92;100.00;100585.34;105338;1253;61725;-52
2023/11/06 08:05:54;;;;;;;0.60;0.20;;;;;;;12.97;100.00;100595.02;105556;1254;72640;-53
2023/11/06 08:08:22;;;;;;;0.10;0.10;;;;;;;13.01;100.00;100611.56;105886;1256;66119;-52
2023/11/06 08:10:49;;;;;;;0.20;0.20;;;;;;;13.03;100.00;100621.02;105526;1259;73052;-53
2023/11/06 08:13:17;;;;;;;0.50;0.10;;;;;;;13.05;100.00;100632.30;105490;1257;60471;-52
2023/11/06 08:15:44;;;;;;;0.20;0.10;;;;;;;13.07;100.00;100645.02;105544;1256;60476;-54
2023/11/06 08:18:13;;;;;;;1.60;0.10;;;;;;;13.09;100.00;100659.55;105780;1254;73862;-53
2023/11/06 08:20:41;;;;;;;0.20;0.10;;;;;;;13.10;100.00;100667.73;105889;1263;66922;-51
2023/11/06 08:23:09;;;;;;;0.20;0.10;;;;;;;13.14;100.00;100676.80;108907;1254;72763;-54
2023/11/06 08:25:36;;;;;;;1.80;0.10;;;;;;;13.20;100.00;100690.61;105836;1260;61686;-51
2023/11/06 08:28:04;;;;;;;0.20;0.10;;;;;;;13.26;100.00;100705.98;105286;1254;60543;-54
2023/11/06 08:30:31;;;;;;;0.70;0.20;;;;;;;13.33;100.00;100716.70;105402;1260;71955;-52
2023/11/06 08:32:58;;;;;;;1.30;0.10;;;;;;;13.39;100.00;100734.27;107323;1254;65687;-52
2023/11/06 08:35:26;;;;;;;1.70;0.10;;;;;;;13.44;100.00;100753.52;105648;1260;73159;-53
2023/11/06 08:37:53;;;;;;;1.00;0.10;;;;;;;13.46;100.00;100767.83;105364;1254;60459;-51
2023/11/06 08:40:21;;;;;;;0.10;0.10;;;;;;;13.48;100.00;100780.02;105447;1260;60961;-54
2023/11/06 08:42:48;;;;;;;0.50;0.20;;;;;;;13.51;100.00;100792.72;105458;1254;72692;-53
2023/11/06 08:45:16;;;;;;;0.70;0.10;;;;;;;13.55;100.00;100799.90;105480;1260;65685;-51
2023/11/06 08:47:44;;;;;;;0.20;0.20;;;;;;;13.61;100.00;100820.01;109015;1254;71796;-54
2023/11/06 08:50:12;;;;;;;1.20;0.20;;;;;;;13.68;100.00;100837.39;107705;1254;61753;-52
2023/11/06 08:52:39;;;;;;;2.20;0.10;;;;;;;13.73;100.00;100854.14;109074;1254;58821;-55
2023/11/06 08:55:07;;;;;;;0.20;0.20;;;;;;;13.74;100.00;100862.39;108993;1254;74294;-55
2023/11/06 08:57:35;;;;;;;0.20;0.20;;;;;;;13.77;100.00;100868.02;109068;1254;67090;-54
2023/11/06 09:00:05;;;;;;;0.30;0.20;;;;;;;13.82;100.00;100873.92;107951;1259;72451;-54
2023/11/06 09:02:33;;;;;;;0.20;0.20;;;;;;;13.89;100.00;100892.77;108943;1254;59011;-54
2023/11/06 09:05:00;;;;;;;1.90;0.20;;;;;;;13.94;100.00;100896.13;108970;1254;59471;-54
2023/11/06 09:07:28;;;;;;;0.20;0.20;;;;;;;13.99;100.00;100904.95;105995;1254;73950;-53
2023/11/06 09:09:55;;;;;;;0.20;0.10;;;;;;;14.01;100.00;100916.23;105472;1258;67052;-54
2023/11/06 09:12:22;;;;;;;0.40;0.30;;;;;;;14.03;100.00;100918.50;105351;1260;72729;-54
2023/11/06 09:14:50;;;;;;;0.30;0.20;;;;;;;14.05;100.00;100927.02;105343;1259;61890;-53
2023/11/06 09:17:17;;;;;;;0.30;0.20;;;;;;;14.09;100.00;100944.02;105399;1259;60421;-54
2023/11/06 09:19:46;;;;;;;0.20;0.20;;;;;;;14.11;100.00;100948.48;108922;1254;72772;-54
2023/11/06 09:22:14;;;;;;;0.20;0.10;;;;;;;14.13;100.00;100959.55;109054;1254;66096;-53
2023/11/06 09:24:42;;;;;;;0.80;0.20;;;;;;;14.17;100.00;100974.69;109021;1254;72201;-53
2023/11/06 09:27:09;;;;;;;0.10;0.10;;;;;;;14.21;100.00;100981.23;109039;1254;58840;-53
2023/11/06 09:29:37;;;;;;;0.20;0.10;;;;;;;14.26;100.00;100994.90;109065;1254;59998;-54
2023/11/06 09:32:05;;;;;;;0.90;0.50;;;;;;;14.30;100.00;101009.16;108866;1254;73896;-53
2023/11/06 09:34:36;;;;;;;0.50;0.20;;;;;;;14.32;100.00;101020.27;108857;1254;66282;-53
2023/11/06 09:37:03;;;;;;;0.10;0.10;;;;;;;14.33;100.00;101030.52;108820;1254;72733;-54
2023/11/06 09:39:31;;;;;;;0.20;0.10;;;;;;;14.34;100.00;101034.44;108641;1256;59219;-54
2023/11/06 09:41:58;;;;;;;0.40;0.20;;;;;;;14.34;100.00;101041.84;108971;1253;59816;-53
2023/11/06 09:44:28;;;;;;;0.20;0.10;;;;;;;14.33;100.00;101044.44;108966;1254;73828;-53
2023/11/06 09:46:56;;;;;;;0.10;0.10;;;;;;;14.29;100.00;101059.07;108922;1253;65663;-53
2023/11/06 09:49:26;;;;;;;0.50;0.20;;;;;;;14.24;100.00;101055.83;109083;1254;72666;-53
2023/11/06 09:51:55;;;;;;;0.10;0.10;;;;;;;14.19;100.00;101058.21;108834;1257;60189;-53
2023/11/06 09:54:25;;;;;;;0.10;0.10;;;;;;;14.14;100.00;101052.10;108931;1253;58763;-54
2023/11/06 09:56:54;;;;;;;0.40;0.10;;;;;;;14.07;100.00;101053.83;109001;1253;72879;-53
2023/11/06 09:59:21;;;;;;;0.30;0.20;;;;;;;14.04;100.00;101046.21;109021;1254;65801;-53
2023/11/06 10:01:53;;;;;;;0.80;0.10;;;;;;;14.00;100.00;101040.40;108750;1253;72771;-53
2023/11/06 10:04:21;;;;;;;0.20;0.10;;;;;;;14.00;100.00;101049.27;108413;1254;60900;-54
2023/11/06 10:06:50;;;;;;;1.40;0.20;;;;;;;14.03;100.00;101051.30;105679;1257;60441;-53
2023/11/06 10:09:24;;;;;;;0.10;0.10;;;;;;;14.06;100.00;101051.38;105395;1252;73539;-53
2023/11/06 10:11:52;;;;;;;0.20;0.10;;;;;;;14.08;100.00;101066.64;105416;1254;67557;-54
2023/11/06 10:14:19;;;;;;;0.60;0.10;;;;;;;14.08;100.00;101056.14;105445;1257;72786;-53
2023/11/06 10:16:47;;;;;;;0.10;0.10;;;;;;;14.07;100.00;101061.24;105416;1255;61131;-54
2023/11/06 10:19:16;;;;;;;0.20;0.20;;;;;;;14.01;100.00;101060.40;105424;1259;60348;-53
2023/11/06 10:21:44;;;;;;;0.30;0.10;;;;;;;13.97;100.00;101059.30;105487;1254;73848;-55
2023/11/06 10:24:13;;;;;;;1.10;0.20;;;;;;;13.92;100.00;101055.92;105338;1259;69598;-55
2023/11/06 10:26:42;;;;;;;0.30;0.20;;;;;;;13.87;100.00;101055.03;105362;1257;72774;-52
2023/11/06 10:29:14;;;;;;;0.10;0.10;;;;;;;13.83;100.00;101046.55;105129;1258;60501;-52
2023/11/06 10:31:44;;;;;;;0.90;0.20;;;;;;;13.80;100.00;101043.42;105000;1251;60487;-51
2023/11/06 10:34:37;;;;;;;0.20;0.20;;;;;;;13.78;100.00;101042.44;107330;1256;72971;-53
2023/11/06 10:37:09;;;;;;;0.30;0.20;;;;;;;13.76;100.00;101066.70;105047;1254;67352;-54
2023/11/06 10:39:41;;;;;;;1.60;0.20;;;;;;;13.75;100.00;101041.67;105272;1259;74453;-53
2023/11/06 10:42:11;;;;;;;1.00;0.20;;;;;;;13.78;100.00;101035.95;108831;1253;60478;-54
2023/11/06 10:44:39;;;;;;;0.70;0.20;;;;;;;13.82;100.00;101038.29;105641;1257;60521;-55
2023/11/06 10:47:08;;;;;;;0.30;0.20;;;;;;;13.83;100.00;101037.17;105458;1252;75969;-52
2023/11/06 10:49:51;;;;;;;0.30;0.20;;;;;;;13.84;100.00;101041.84;106032;1253;67298;-53
2023/11/06 10:52:19;;;;;;;2.60;0.20;;;;;;;13.86;100.00;101060.66;105671;1254;71385;-52
2023/11/06 10:54:47;;;;;;;0.50;0.20;;;;;;;13.90;100.00;101046.08;105657;1256;60531;-52
2023/11/06 10:57:16;;;;;;;0.30;0.20;;;;;;;13.92;100.00;101049.41;105392;1257;162516;-53
2023/11/06 11:00:57;;;;;;;0.50;0.20;;;;;;;13.89;100.00;101026.61;102392;1292;601287;-52
2023/11/06 11:03:25;;;;;;;0.30;0.20;;;;;;;13.85;100.00;101242.27;104851;1267;59307;-53
2023/11/06 11:05:53;;;;;;;0.30;0.20;;;;;;;13.84;100.00;101204.94;105340;1270;62277;-53
2023/11/06 11:08:24;;;;;;;0.20;0.20;;;;;;;13.84;100.00;101179.48;104892;1268;72755;-51
2023/11/06 11:10:53;;;;;;;1.80;0.20;;;;;;;13.86;100.00;101171.85;104784;1271;66922;-53
2023/11/06 11:13:21;;;;;;;0.20;0.20;;;;;;;13.88;100.00;101155.51;104626;1266;72767;-51
2023/11/06 11:15:49;;;;;;;0.50;0.20;;;;;;;13.92;100.00;101151.73;104632;1263;59416;-54
2023/11/06 11:18:17;;;;;;;0.80;0.20;;;;;;;13.96;100.00;101150.83;104615;1270;59367;-52